Cape Reinga, New Zealand
Current Conditions -  °F | °C
As of 6:00 AM on Tuesday 21 Oct 2014 (Local Time) from NZAA Reporting Station
Rain Showers Rain Showers  
Wind Chill: 55°   Ceiling: 2200
Heat Index: 55°   Visibility: 6mi
Dew Point: 52°   Wind: 9mph
Humidity: 88%   Direction: 220°SW
Pressure: 30.03"   Gusts: NA
Location:  34.43°S, 172.68°E
Report Text: NZAA 201800Z AUTO 22008KT 9999 -SHRA FEW017/// BKN022///BKN034/// 13/11 Q1017 NOSIG
Loading
Personal Weather Stations






























Interactive Weather Map
Tropical Storm Tracking
New forecast layout! Learn more

10-Day Weather Forecast

Advertisements
Track Severe Weather on mobile